Westville, Connecticut
Current Conditions -  °F | °C
As of 6:27 PM on Wednesday 26 Nov 2014 (Local Time) from KHVN Reporting Station
Light Rain Light Rain  
Wind Chill: 28°   Ceiling: 1000
Heat Index: 38°   Visibility: 10mi
Dew Point: 33°   Wind: 21mph
Humidity: 83%   Direction: 350°N
Pressure: 29.71"   Gusts: 30mph
Location:  41.3258°N, 72.9705°W
Report Text: KHVN 262327Z 35018G26KT 10SM -RA BKN010 BKN013 OVC019 03/01 A2971 RMK AO2 PK WND 01028/2314 P0002 T00330006
Loading
Personal Weather Stations






























Interactive Weather Map New forecast layout! Learn more

10-Day Weather Forecast

Advertisements
Track Severe Weather on mobile